createdAt,value
2018-02-10T00:00:13.423Z,99.60
2018-02-10T00:02:39.603Z,99.70
2018-02-10T00:05:05.814Z,99.60
2018-02-10T00:07:31.981Z,99.70
2018-02-10T00:09:58.923Z,99.70
2018-02-10T00:12:25.105Z,99.70
2018-02-10T00:14:51.302Z,99.80
2018-02-10T00:17:17.445Z,99.70
2018-02-10T00:19:43.638Z,99.70
2018-02-10T00:22:10.634Z,99.90
2018-02-10T00:24:36.810Z,99.90
2018-02-10T00:27:03.715Z,99.90
2018-02-10T00:29:29.906Z,99.90
2018-02-10T00:31:56.076Z,99.90
2018-02-10T00:34:22.265Z,99.90
2018-02-10T00:36:48.443Z,99.90
2018-02-10T00:39:15.379Z,99.90
2018-02-10T00:41:41.611Z,99.90
2018-02-10T00:44:08.559Z,99.90
2018-02-10T00:46:35.473Z,99.90
2018-02-10T00:49:01.687Z,99.90
2018-02-10T00:51:27.846Z,99.90
2018-02-10T00:53:54.066Z,99.90
2018-02-10T00:56:20.223Z,99.90
2018-02-10T00:58:47.160Z,99.90
2018-02-10T01:01:14.063Z,99.90
2018-02-10T01:03:40.227Z,99.90
2018-02-10T01:06:06.441Z,99.90
2018-02-10T01:08:33.361Z,99.90
2018-02-10T01:10:59.550Z,99.90
2018-02-10T01:13:25.759Z,99.90
2018-02-10T01:15:52.656Z,99.90
2018-02-10T01:18:18.888Z,99.90
2018-02-10T01:20:45.091Z,99.90
2018-02-10T01:23:11.287Z,99.90
2018-02-10T01:25:38.150Z,99.90
2018-02-10T01:28:04.371Z,99.90
2018-02-10T01:30:30.602Z,99.90
2018-02-10T01:32:56.777Z,99.90
2018-02-10T01:35:22.972Z,99.90
2018-02-10T01:37:49.162Z,99.90
2018-02-10T01:40:16.073Z,99.90
2018-02-10T01:42:42.274Z,99.90
2018-02-10T01:45:08.432Z,99.90
2018-02-10T01:47:34.606Z,99.90
2018-02-10T01:50:13.019Z,99.90
2018-02-10T01:52:39.233Z,99.90
2018-02-10T01:55:05.432Z,99.90
2018-02-10T01:57:31.606Z,99.90
2018-02-10T01:59:57.790Z,99.90
2018-02-10T02:02:23.995Z,99.90
2018-02-10T02:04:50.203Z,99.90
2018-02-10T02:07:16.363Z,99.90
2018-02-10T02:09:42.539Z,99.90
2018-02-10T02:12:08.727Z,99.90
2018-02-10T02:14:35.654Z,99.90
2018-02-10T02:17:01.838Z,99.90
2018-02-10T02:19:28.385Z,99.90
2018-02-10T02:21:54.952Z,99.90
2018-02-10T02:24:21.907Z,99.90
2018-02-10T02:26:48.806Z,99.90
2018-02-10T02:29:14.981Z,99.90
2018-02-10T02:31:41.876Z,99.90
2018-02-10T02:34:08.084Z,99.90
2018-02-10T02:36:34.267Z,99.90
2018-02-10T02:39:01.231Z,99.90
2018-02-10T02:41:28.255Z,99.90
2018-02-10T02:43:54.431Z,99.90
2018-02-10T02:46:20.613Z,99.90
2018-02-10T02:48:47.543Z,99.90
2018-02-10T02:51:14.533Z,99.90
2018-02-10T02:53:40.685Z,99.90
2018-02-10T02:56:06.851Z,99.90
2018-02-10T02:58:33.093Z,99.90
2018-02-10T03:01:00.077Z,99.90
2018-02-10T03:03:26.262Z,99.90
2018-02-10T03:05:53.179Z,99.90
2018-02-10T03:08:19.356Z,99.90
2018-02-10T03:10:52.514Z,99.90
2018-02-10T03:13:19.425Z,99.90
2018-02-10T03:15:45.626Z,99.90
2018-02-10T03:18:11.811Z,99.90
2018-02-10T03:20:38.760Z,99.90
2018-02-10T03:23:05.704Z,99.90
2018-02-10T03:25:32.595Z,99.90
2018-02-10T03:27:58.790Z,99.90
2018-02-10T03:30:24.948Z,99.90
2018-02-10T03:32:51.144Z,99.90
2018-02-10T03:35:18.058Z,99.90
2018-02-10T03:37:44.264Z,99.90
2018-02-10T03:40:10.437Z,99.90
2018-02-10T03:42:36.663Z,99.90
2018-02-10T03:45:02.878Z,99.90
2018-02-10T03:47:29.088Z,99.90
2018-02-10T03:49:55.279Z,99.90
2018-02-10T03:52:21.488Z,99.90
2018-02-10T03:54:47.728Z,99.90
2018-02-10T03:57:13.903Z,99.90
2018-02-10T03:59:40.907Z,99.90
2018-02-10T04:02:07.090Z,99.90
2018-02-10T04:04:33.293Z,99.90
2018-02-10T04:06:59.460Z,99.90
2018-02-10T04:09:25.687Z,99.90
2018-02-10T04:11:51.854Z,99.90
2018-02-10T04:14:18.042Z,99.90
2018-02-10T04:16:44.211Z,99.90
2018-02-10T04:19:10.385Z,99.90
2018-02-10T04:21:36.634Z,99.90
2018-02-10T04:24:02.840Z,99.90
2018-02-10T04:26:29.019Z,99.90
2018-02-10T04:28:55.200Z,99.90
2018-02-10T04:31:21.410Z,99.90
2018-02-10T04:33:47.598Z,99.90
2018-02-10T04:36:13.763Z,99.90
2018-02-10T04:38:39.939Z,99.90
2018-02-10T04:41:06.092Z,99.90
2018-02-10T04:43:32.308Z,99.90
2018-02-10T04:45:58.521Z,99.90
2018-02-10T04:48:24.698Z,99.90
2018-02-10T04:50:50.932Z,99.90
2018-02-10T04:53:17.101Z,99.90
2018-02-10T04:55:43.254Z,99.90
2018-02-10T04:58:10.160Z,99.90
2018-02-10T05:00:36.336Z,99.90
2018-02-10T05:03:03.243Z,99.90
2018-02-10T05:05:29.454Z,99.90
2018-02-10T05:07:56.371Z,99.90
2018-02-10T05:10:22.542Z,99.90
2018-02-10T05:12:48.730Z,99.90
2018-02-10T05:15:14.927Z,99.90
2018-02-10T05:17:41.834Z,99.90
2018-02-10T05:20:08.035Z,99.90
2018-02-10T05:22:34.222Z,99.90
2018-02-10T05:25:01.157Z,99.90
2018-02-10T05:27:28.095Z,99.90
2018-02-10T05:29:54.277Z,99.90
2018-02-10T05:32:20.471Z,99.90
2018-02-10T05:34:47.379Z,99.90
2018-02-10T05:37:13.602Z,99.90
2018-02-10T05:39:39.821Z,99.90
2018-02-10T05:42:06.081Z,99.90
2018-02-10T05:44:32.994Z,99.90
2018-02-10T05:46:59.191Z,99.90
2018-02-10T05:49:25.378Z,99.90
2018-02-10T05:51:52.260Z,99.90
2018-02-10T05:54:18.454Z,99.90
2018-02-10T05:56:44.651Z,99.90
2018-02-10T05:59:11.622Z,99.90
2018-02-10T06:01:38.542Z,99.90
2018-02-10T06:04:04.747Z,99.90
2018-02-10T06:06:31.711Z,99.90
2018-02-10T06:08:57.903Z,99.90
2018-02-10T06:11:24.070Z,99.90
2018-02-10T06:13:50.231Z,99.90
2018-02-10T06:16:16.415Z,99.90
2018-02-10T06:18:42.636Z,99.90
2018-02-10T06:21:09.611Z,99.90
2018-02-10T06:23:36.547Z,99.90
2018-02-10T06:26:03.518Z,99.90
2018-02-10T06:28:29.681Z,99.90
2018-02-10T06:30:55.843Z,99.90
2018-02-10T06:33:22.787Z,99.90
2018-02-10T06:35:49.758Z,99.90
2018-02-10T06:38:15.963Z,99.90
2018-02-10T06:40:42.869Z,99.90
2018-02-10T06:43:09.087Z,99.90
2018-02-10T06:45:35.293Z,99.90
2018-02-10T06:48:01.499Z,99.90
2018-02-10T06:50:28.412Z,99.90
2018-02-10T06:52:54.611Z,99.90
2018-02-10T06:55:20.824Z,99.90
2018-02-10T06:57:47.023Z,99.90
2018-02-10T07:00:13.975Z,99.90
2018-02-10T07:02:40.167Z,99.90
2018-02-10T07:05:06.376Z,99.90
2018-02-10T07:07:32.552Z,99.90
2018-02-10T07:09:59.479Z,99.90
2018-02-10T07:12:26.414Z,99.90
2018-02-10T07:14:52.645Z,99.90
2018-02-10T07:17:20.277Z,99.90
2018-02-10T07:19:46.594Z,99.90
2018-02-10T07:22:12.764Z,99.90
2018-02-10T07:24:39.735Z,99.90
2018-02-10T07:27:05.980Z,99.90
2018-02-10T07:29:32.210Z,99.90
2018-02-10T07:31:58.463Z,99.90
2018-02-10T07:34:24.650Z,99.90
2018-02-10T07:36:50.816Z,99.90
2018-02-10T07:39:16.995Z,99.90
2018-02-10T07:41:43.230Z,99.90
2018-02-10T07:44:09.418Z,99.90
2018-02-10T07:46:35.554Z,99.90
2018-02-10T07:49:03.110Z,99.90
2018-02-10T07:51:30.123Z,99.90
2018-02-10T07:53:56.324Z,99.90
2018-02-10T07:56:29.851Z,99.90
2018-02-10T07:58:56.046Z,99.90
2018-02-10T08:01:22.519Z,99.90
2018-02-10T08:03:49.012Z,99.90
2018-02-10T08:06:15.253Z,99.90
2018-02-10T08:08:41.712Z,99.90
2018-02-10T08:11:08.156Z,99.90
2018-02-10T08:13:34.375Z,99.90
2018-02-10T08:16:00.561Z,99.90
2018-02-10T08:18:27.252Z,99.90
2018-02-10T08:20:53.786Z,99.90
2018-02-10T08:23:20.335Z,99.90
2018-02-10T08:25:46.545Z,99.90
2018-02-10T08:28:12.715Z,99.90
2018-02-10T08:30:39.383Z,99.90
2018-02-10T08:33:05.563Z,99.90
2018-02-10T08:35:31.779Z,99.90
2018-02-10T08:37:58.584Z,99.90
2018-02-10T08:40:24.978Z,99.90
2018-02-10T08:42:51.206Z,99.90
2018-02-10T08:45:17.409Z,99.90
2018-02-10T08:47:43.814Z,99.90
2018-02-10T08:50:10.887Z,99.90
2018-02-10T08:52:37.088Z,99.90
2018-02-10T08:55:03.775Z,99.90
2018-02-10T08:57:30.023Z,99.90
2018-02-10T08:59:56.434Z,99.90
2018-02-10T09:02:22.651Z,99.90
2018-02-10T09:04:49.421Z,99.90
2018-02-10T09:07:16.798Z,99.90
2018-02-10T09:09:43.475Z,99.90
2018-02-10T09:12:09.879Z,99.90
2018-02-10T09:14:38.438Z,99.90
2018-02-10T09:17:04.865Z,99.90
2018-02-10T09:19:32.454Z,99.90
2018-02-10T09:21:59.554Z,99.90
2018-02-10T09:24:25.985Z,99.90
2018-02-10T09:26:52.599Z,99.90
2018-02-10T09:29:18.972Z,99.90
2018-02-10T09:31:45.405Z,99.90
2018-02-10T09:34:14.917Z,99.90
2018-02-10T09:36:41.573Z,99.90
2018-02-10T09:39:07.948Z,99.90
2018-02-10T09:41:34.388Z,99.90
2018-02-10T09:44:01.475Z,99.90
2018-02-10T09:46:28.344Z,99.90
2018-02-10T09:48:54.742Z,99.90
2018-02-10T09:51:21.198Z,99.90
2018-02-10T09:53:47.581Z,99.90
2018-02-10T09:56:14.675Z,99.90
2018-02-10T09:58:41.161Z,99.90
2018-02-10T10:01:07.965Z,99.90
2018-02-10T10:03:35.095Z,99.90
2018-02-10T10:06:01.482Z,99.90
2018-02-10T10:08:29.516Z,99.90
2018-02-10T10:10:56.566Z,99.90
2018-02-10T10:13:22.763Z,99.90
2018-02-10T10:15:49.016Z,99.90
2018-02-10T10:18:15.190Z,99.90
2018-02-10T10:20:41.386Z,99.90
2018-02-10T10:23:07.547Z,99.90
2018-02-10T10:25:33.746Z,99.90
2018-02-10T10:28:06.810Z,99.90
2018-02-10T10:30:32.987Z,99.90
2018-02-10T10:32:59.188Z,99.90
2018-02-10T10:35:25.350Z,99.90
2018-02-10T10:37:51.588Z,99.90
2018-02-10T10:40:18.713Z,99.90
2018-02-10T10:42:44.952Z,99.90
2018-02-10T10:45:11.194Z,99.90
2018-02-10T10:47:37.440Z,99.90
2018-02-10T10:50:04.384Z,99.90
2018-02-10T10:52:31.359Z,99.90
2018-02-10T10:54:57.854Z,99.90
2018-02-10T10:57:24.103Z,99.90
2018-02-10T10:59:51.008Z,99.90
2018-02-10T11:02:17.958Z,99.90
2018-02-10T11:04:44.874Z,99.90
2018-02-10T11:07:11.073Z,99.90
2018-02-10T11:09:37.244Z,99.90
2018-02-10T11:12:07.016Z,99.90
2018-02-10T11:14:33.413Z,99.90
2018-02-10T11:16:59.642Z,99.90
2018-02-10T11:19:26.592Z,99.90
2018-02-10T11:21:52.826Z,99.90
2018-02-10T11:24:19.027Z,99.90
2018-02-10T11:26:45.941Z,99.90
2018-02-10T11:29:12.186Z,99.90
2018-02-10T11:31:39.122Z,99.90
2018-02-10T11:34:05.302Z,99.90
2018-02-10T11:36:31.526Z,99.90
2018-02-10T11:38:57.712Z,99.90
2018-02-10T11:41:23.892Z,99.90
2018-02-10T11:43:50.067Z,99.90
2018-02-10T11:46:16.244Z,99.80
2018-02-10T11:48:42.418Z,99.60
2018-02-10T11:51:09.390Z,99.00
2018-02-10T11:53:35.557Z,99.00
2018-02-10T11:56:01.754Z,99.00
2018-02-10T11:58:27.948Z,98.80
2018-02-10T12:00:54.995Z,98.40
2018-02-10T12:03:21.214Z,98.40
2018-02-10T12:05:47.374Z,98.70
2018-02-10T12:08:13.541Z,97.60
2018-02-10T12:10:39.774Z,97.60
2018-02-10T12:13:05.945Z,97.60
2018-02-10T12:15:32.847Z,96.80
2018-02-10T12:17:59.078Z,96.80
2018-02-10T12:20:25.395Z,96.20
2018-02-10T12:22:51.577Z,96.30
2018-02-10T12:25:17.837Z,96.20
2018-02-10T12:27:43.991Z,95.80
2018-02-10T12:30:10.244Z,94.90
2018-02-10T12:32:37.251Z,94.60
2018-02-10T12:35:03.528Z,94.50
2018-02-10T12:37:29.782Z,94.80
2018-02-10T12:39:56.782Z,94.50
2018-02-10T12:42:23.794Z,94.10
2018-02-10T12:44:50.058Z,94.10
2018-02-10T12:47:16.314Z,94.40
2018-02-10T12:49:42.475Z,94.20
2018-02-10T12:52:08.742Z,94.60
2018-02-10T12:54:35.686Z,94.30
2018-02-10T12:57:02.651Z,94.10
2018-02-10T12:59:29.315Z,94.10
2018-02-10T13:01:55.730Z,93.30
2018-02-10T13:04:21.935Z,93.00
2018-02-10T13:06:48.164Z,93.40
2018-02-10T13:09:15.103Z,93.60
2018-02-10T13:11:42.016Z,94.10
2018-02-10T13:14:08.199Z,94.10
2018-02-10T13:16:34.404Z,94.30
2018-02-10T13:19:00.626Z,94.60
2018-02-10T13:21:27.600Z,94.30
2018-02-10T13:23:54.300Z,94.30
2018-02-10T13:26:21.235Z,94.10
2018-02-10T13:28:48.207Z,93.90
2018-02-10T13:31:15.145Z,94.10
2018-02-10T13:33:42.145Z,93.90
2018-02-10T13:36:08.339Z,93.90
2018-02-10T13:38:34.533Z,94.30
2018-02-10T13:41:00.803Z,94.20
2018-02-10T13:43:27.092Z,95.00
2018-02-10T13:45:53.344Z,94.50
